createdAt,value
2022-10-01T00:01:04.111Z,41.35
2022-10-01T00:03:40.058Z,34.70
2022-10-01T00:06:10.769Z,37.42
2022-10-01T00:08:40.047Z,25.25
2022-10-01T00:11:11.225Z,28.20
2022-10-01T00:13:39.384Z,22.40
2022-10-01T00:16:08.043Z,23.55
2022-10-01T00:18:36.610Z,24.08
2022-10-01T00:21:08.711Z,104.65
2022-10-01T00:23:36.618Z,53.70
2022-10-01T00:26:14.180Z,36.90
2022-10-01T00:28:42.769Z,28.73
2022-10-01T00:31:10.613Z,21.52
2022-10-01T00:33:38.382Z,15.82
2022-10-01T00:36:08.053Z,16.13
2022-10-01T00:38:35.629Z,16.58
2022-10-01T00:41:03.988Z,16.80
2022-10-01T00:43:35.296Z,24.98
2022-10-01T00:46:06.852Z,16.23
2022-10-01T00:48:40.110Z,13.48
2022-10-01T00:51:07.582Z,15.52
2022-10-01T00:53:35.105Z,14.40
2022-10-01T00:56:02.788Z,20.75
2022-10-01T00:58:30.055Z,17.25
2022-10-01T01:00:58.855Z,22.10
2022-10-01T01:03:26.965Z,19.20
2022-10-01T01:05:54.350Z,22.00
2022-10-01T01:08:21.596Z,20.35
2022-10-01T01:10:57.890Z,23.90
2022-10-01T01:13:33.131Z,23.15
2022-10-01T01:16:09.976Z,99.50
2022-10-01T01:18:45.322Z,69.93
2022-10-01T01:21:21.615Z,188.18
2022-10-01T01:24:15.685Z,17.27
2022-10-01T01:26:55.269Z,21.67
2022-10-01T01:29:29.434Z,36.35
2022-10-01T01:32:02.920Z,90.85
2022-10-01T01:34:33.401Z,100.65
2022-10-01T01:37:06.405Z,185.02
2022-10-01T01:39:35.087Z,264.08
2022-10-01T01:42:07.128Z,155.00
2022-10-01T01:44:39.782Z,148.07
2022-10-01T01:47:09.205Z,44.13
2022-10-01T01:49:37.491Z,106.93
2022-10-01T01:52:08.807Z,91.03
2022-10-01T01:54:36.959Z,33.97
2022-10-01T01:57:04.645Z,69.63
2022-10-01T01:59:33.209Z,33.55
2022-10-01T02:02:02.504Z,205.57
2022-10-01T02:04:34.553Z,165.00
2022-10-01T02:07:32.565Z,99.30
2022-10-01T02:10:11.570Z,140.05
2022-10-01T02:12:51.528Z,178.27
2022-10-01T02:15:25.758Z,195.23
2022-10-01T02:18:03.604Z,167.13
2022-10-01T02:20:36.820Z,65.15
2022-10-01T02:23:08.074Z,104.55
2022-10-01T02:25:40.059Z,243.70
2022-10-01T02:28:12.016Z,156.32
2022-10-01T02:30:41.167Z,320.17
2022-10-01T02:33:13.853Z,265.77
2022-10-01T02:35:44.262Z,240.30
2022-10-01T02:38:15.644Z,137.20
2022-10-01T02:40:45.054Z,235.10
2022-10-01T02:43:18.653Z,32.17
2022-10-01T02:45:50.707Z,20.38
2022-10-01T02:48:19.772Z,50.33
2022-10-01T02:50:51.528Z,21.50
2022-10-01T02:53:26.247Z,16.23
2022-10-01T02:55:55.342Z,18.95
2022-10-01T02:58:23.538Z,15.85
2022-10-01T03:00:50.847Z,21.55
2022-10-01T03:03:19.656Z,28.83
2022-10-01T03:05:47.632Z,109.90
2022-10-01T03:08:14.867Z,68.82
2022-10-01T03:10:46.015Z,19.13
2022-10-01T03:15:41.944Z,18.33
2022-10-01T03:18:09.252Z,56.88
2022-10-01T03:20:38.335Z,20.92
2022-10-01T03:23:05.607Z,56.88
2022-10-01T03:25:32.846Z,18.55
2022-10-01T03:28:00.897Z,18.02
2022-10-01T03:30:28.289Z,19.65
2022-10-01T03:32:55.524Z,26.63
2022-10-01T03:35:23.107Z,14.80
2022-10-01T03:37:51.791Z,16.75
2022-10-01T03:40:18.927Z,19.48
2022-10-01T03:42:46.689Z,14.50
2022-10-01T03:45:14.166Z,15.68
2022-10-01T03:47:41.488Z,79.80
2022-10-01T03:50:09.605Z,24.10
2022-10-01T03:52:36.853Z,12.65
2022-10-01T03:55:06.530Z,12.75
2022-10-01T03:57:34.450Z,12.77
2022-10-01T04:00:02.029Z,10.80
2022-10-01T04:02:29.427Z,13.75
2022-10-01T04:04:57.113Z,12.77
2022-10-01T04:07:24.295Z,52.63
2022-10-01T04:09:51.492Z,65.05
2022-10-01T04:12:20.510Z,127.70
2022-10-01T04:14:47.732Z,11.70
2022-10-01T04:17:15.094Z,38.00
2022-10-01T04:19:42.565Z,55.92
2022-10-01T04:22:09.802Z,80.95
2022-10-01T04:24:37.183Z,118.47
2022-10-01T04:27:05.012Z,124.45
2022-10-01T04:29:38.027Z,40.85
2022-10-01T04:32:07.879Z,27.45
2022-10-01T04:34:35.409Z,13.80
2022-10-01T04:37:02.585Z,10.07
2022-10-01T04:39:30.446Z,11.50
2022-10-01T04:41:57.723Z,10.98
2022-10-01T04:44:24.875Z,23.45
2022-10-01T04:46:53.956Z,105.75
2022-10-01T04:49:21.353Z,98.30
2022-10-01T04:51:49.043Z,47.00
2022-10-01T04:54:16.267Z,12.13
2022-10-01T04:56:43.455Z,9.55
2022-10-01T04:59:11.113Z,11.85
2022-10-01T05:01:39.057Z,9.70
2022-10-01T05:04:08.236Z,9.80
2022-10-01T05:06:35.854Z,10.52
2022-10-01T05:09:03.524Z,43.88
2022-10-01T05:11:31.064Z,12.93
2022-10-01T05:13:59.088Z,12.57
2022-10-01T05:16:27.471Z,34.83
2022-10-01T05:18:54.747Z,14.85
2022-10-01T05:21:23.653Z,77.43
2022-10-01T05:23:53.940Z,43.72
2022-10-01T05:26:21.629Z,78.22
2022-10-01T05:28:49.407Z,17.77
2022-10-01T05:31:19.091Z,19.52
2022-10-01T05:33:46.774Z,124.88
2022-10-01T05:36:14.356Z,124.32
2022-10-01T05:38:43.170Z,111.28
2022-10-01T05:41:10.438Z,64.57
2022-10-01T05:43:37.995Z,38.55
2022-10-01T05:46:05.863Z,37.17
2022-10-01T05:48:33.283Z,43.30
2022-10-01T05:51:01.296Z,40.00
2022-10-01T05:53:28.526Z,41.38
2022-10-01T05:55:59.053Z,36.28
2022-10-01T05:58:27.083Z,31.08
2022-10-01T06:00:55.457Z,31.23
2022-10-01T06:03:22.819Z,26.88
2022-10-01T06:05:50.994Z,26.75
2022-10-01T06:08:18.344Z,26.92
2022-10-01T06:10:45.618Z,25.55
2022-10-01T06:13:14.788Z,23.58
2022-10-01T06:15:42.062Z,27.25
2022-10-01T06:18:11.595Z,28.30
2022-10-01T06:20:40.814Z,25.88
2022-10-01T06:23:12.900Z,28.27
2022-10-01T06:25:41.781Z,24.08
2022-10-01T06:28:11.402Z,26.98
2022-10-01T06:30:40.428Z,29.77
2022-10-01T06:33:11.019Z,28.75
2022-10-01T06:35:41.859Z,28.58
2022-10-01T06:38:09.936Z,27.23
2022-10-01T06:40:37.862Z,26.02
2022-10-01T06:43:05.810Z,25.98
2022-10-01T06:45:37.050Z,29.75
2022-10-01T06:48:06.320Z,26.13
2022-10-01T06:50:34.970Z,23.95
2022-10-01T06:53:02.583Z,25.90
2022-10-01T06:55:32.485Z,24.58
2022-10-01T06:58:01.542Z,27.05
2022-10-01T07:00:30.810Z,22.88
2022-10-01T07:02:58.749Z,23.00
2022-10-01T07:05:29.705Z,24.83
2022-10-01T07:07:57.008Z,22.08
2022-10-01T07:10:24.467Z,15.68
2022-10-01T07:12:52.272Z,18.17
2022-10-01T07:15:21.411Z,19.83
2022-10-01T07:17:50.402Z,17.63
2022-10-01T07:20:20.124Z,20.95
2022-10-01T07:22:50.171Z,20.50
2022-10-01T07:25:17.586Z,18.88
2022-10-01T07:27:45.253Z,17.42
2022-10-01T07:30:12.784Z,15.30
2022-10-01T07:32:43.150Z,21.42
2022-10-01T07:35:10.957Z,15.68
2022-10-01T07:37:38.148Z,17.20
2022-10-01T07:40:08.365Z,16.73
2022-10-01T07:42:36.075Z,15.80
2022-10-01T07:45:03.537Z,14.75
2022-10-01T07:47:34.078Z,12.88
2022-10-01T07:50:02.018Z,13.80
2022-10-01T07:52:29.640Z,14.43
2022-10-01T07:54:57.661Z,19.45
2022-10-01T07:57:27.682Z,12.70
2022-10-01T07:59:56.166Z,13.63
2022-10-01T08:02:23.621Z,13.02
2022-10-01T08:04:58.082Z,14.82
2022-10-01T08:07:25.383Z,13.48
2022-10-01T08:10:03.606Z,12.90
2022-10-01T08:12:46.748Z,11.13
2022-10-01T08:15:19.405Z,10.23
2022-10-01T08:17:46.927Z,10.52
2022-10-01T08:20:27.042Z,10.73
2022-10-01T08:23:13.003Z,12.43
2022-10-01T08:25:44.529Z,12.27
2022-10-01T08:28:14.327Z,11.88
2022-10-01T08:30:59.186Z,13.20
2022-10-01T08:33:45.467Z,10.15
2022-10-01T08:36:15.367Z,9.77
2022-10-01T08:38:45.711Z,9.75
2022-10-01T08:41:33.435Z,10.13
2022-10-01T08:44:18.873Z,9.52
2022-10-01T08:46:47.750Z,9.15
2022-10-01T08:49:21.200Z,8.95
2022-10-01T08:51:54.530Z,7.35
2022-10-01T08:54:30.957Z,7.60
2022-10-01T08:57:01.305Z,8.57
2022-10-01T08:59:38.441Z,8.15
2022-10-01T09:02:19.444Z,9.10
2022-10-01T09:04:49.179Z,8.50
2022-10-01T09:07:30.511Z,7.70
2022-10-01T09:10:16.729Z,8.48
2022-10-01T09:12:58.906Z,7.47
2022-10-01T09:15:34.379Z,7.15
2022-10-01T09:18:14.939Z,7.80
2022-10-01T09:20:47.755Z,7.97
2022-10-01T09:23:22.589Z,6.53
2022-10-01T09:25:50.842Z,7.28
2022-10-01T09:28:21.633Z,7.53
2022-10-01T09:30:56.787Z,7.63
2022-10-01T09:33:29.768Z,6.82
2022-10-01T09:36:05.880Z,6.25
2022-10-01T09:38:38.840Z,7.07
2022-10-01T09:41:08.497Z,6.78
2022-10-01T09:43:39.808Z,6.22
2022-10-01T09:46:12.374Z,6.57
2022-10-01T09:48:48.002Z,6.90
2022-10-01T09:51:19.304Z,6.07
2022-10-01T09:53:54.980Z,7.13
2022-10-01T09:56:28.851Z,6.15
2022-10-01T09:59:01.755Z,7.07
2022-10-01T10:01:42.157Z,5.75
2022-10-01T10:04:10.374Z,9.15
2022-10-01T10:06:38.921Z,5.57
2022-10-01T10:09:16.457Z,5.43
2022-10-01T10:11:45.221Z,7.95
2022-10-01T10:14:17.676Z,4.75
2022-10-01T10:16:48.877Z,6.05
2022-10-01T10:19:21.713Z,5.53
2022-10-01T10:21:51.556Z,4.70
2022-10-01T10:24:25.719Z,6.20
2022-10-01T10:26:59.091Z,6.15
2022-10-01T10:29:28.444Z,5.07
2022-10-01T10:31:59.040Z,5.22
2022-10-01T10:34:32.956Z,7.38
2022-10-01T10:37:03.411Z,5.32
2022-10-01T10:39:35.058Z,4.45
2022-10-01T10:44:33.071Z,5.53
2022-10-01T10:47:05.271Z,5.00
2022-10-01T10:49:38.600Z,4.10
2022-10-01T10:52:19.560Z,4.10
2022-10-01T10:54:48.928Z,3.80
2022-10-01T10:57:20.179Z,4.43
2022-10-01T10:59:56.484Z,3.95
2022-10-01T11:02:27.024Z,3.75
2022-10-01T11:04:55.614Z,3.38
2022-10-01T11:07:24.911Z,4.15
2022-10-01T11:10:08.386Z,3.97
2022-10-01T11:12:49.360Z,4.32
2022-10-01T11:15:35.893Z,4.50
2022-10-01T11:18:25.564Z,4.97
2022-10-01T11:21:04.777Z,4.80
2022-10-01T11:23:47.868Z,6.55
2022-10-01T11:26:24.287Z,5.20
2022-10-01T11:29:05.961Z,4.25
2022-10-01T11:31:39.290Z,5.35
2022-10-01T11:34:37.294Z,4.75
2022-10-01T11:37:11.773Z,7.65
2022-10-01T11:39:42.144Z,5.28
2022-10-01T11:42:13.428Z,4.30
2022-10-01T11:44:45.374Z,4.85
2022-10-01T11:47:17.333Z,8.68
2022-10-01T11:49:54.254Z,6.40
2022-10-01T11:52:31.902Z,6.65
2022-10-01T11:55:07.001Z,4.97
2022-10-01T11:57:34.362Z,6.70
2022-10-01T12:00:07.722Z,4.95
2022-10-01T12:02:46.134Z,4.20
2022-10-01T12:05:19.268Z,4.70
2022-10-01T12:07:53.570Z,5.45
2022-10-01T12:10:35.182Z,6.00
2022-10-01T12:13:08.942Z,5.50
2022-10-01T12:15:43.710Z,4.82
2022-10-01T12:18:18.502Z,7.10
2022-10-01T12:20:50.638Z,6.78
2022-10-01T12:23:22.154Z,5.45
2022-10-01T12:26:01.017Z,6.45
2022-10-01T12:28:33.751Z,5.03
2022-10-01T12:31:08.433Z,5.18
2022-10-01T12:34:00.567Z,6.57
2022-10-01T12:36:40.598Z,6.80
2022-10-01T12:39:24.338Z,5.35
2022-10-01T12:42:05.590Z,4.78
2022-10-01T12:44:56.264Z,5.55
2022-10-01T12:47:35.997Z,5.53
2022-10-01T12:50:17.595Z,4.82
2022-10-01T12:52:57.988Z,5.25
2022-10-01T12:55:45.649Z,4.82
2022-10-01T12:58:24.761Z,4.40
2022-10-01T13:01:00.453Z,4.13
2022-10-01T13:03:49.107Z,4.90
2022-10-01T13:06:32.942Z,9.13
2022-10-01T13:09:15.369Z,5.25
2022-10-01T13:12:16.772Z,6.03
2022-10-01T13:14:46.345Z,7.63
2022-10-01T13:17:21.537Z,5.32
2022-10-01T13:19:58.534Z,6.10
2022-10-01T13:22:35.211Z,5.53
2022-10-01T13:25:21.785Z,5.28
2022-10-01T13:27:58.990Z,4.45
2022-10-01T13:30:33.401Z,5.10
2022-10-01T13:33:01.351Z,4.75
2022-10-01T13:35:35.738Z,6.43
2022-10-01T13:38:15.120Z,3.85
2022-10-01T13:40:45.178Z,5.05
2022-10-01T13:43:18.286Z,4.10
2022-10-01T13:45:47.303Z,4.35
2022-10-01T13:48:19.397Z,5.15
2022-10-01T13:50:57.273Z,5.07
2022-10-01T13:53:26.327Z,6.38
2022-10-01T13:55:56.240Z,5.10
2022-10-01T13:58:32.090Z,5.93
2022-10-01T14:01:02.333Z,3.97
2022-10-01T14:03:42.308Z,5.90
2022-10-01T14:06:17.499Z,5.13
2022-10-01T14:08:51.108Z,4.90
2022-10-01T14:11:25.028Z,4.20
2022-10-01T14:13:53.133Z,4.45
2022-10-01T14:16:21.059Z,5.82
2022-10-01T14:18:50.014Z,6.30
2022-10-01T14:21:35.272Z,4.97
2022-10-01T14:24:16.826Z,4.60
2022-10-01T14:26:52.050Z,4.25
2022-10-01T14:29:33.837Z,5.10
2022-10-01T14:32:12.545Z,6.50
2022-10-01T14:34:52.784Z,7.22
2022-10-01T14:37:21.076Z,13.45
2022-10-01T14:40:01.577Z,4.53
2022-10-01T14:42:30.301Z,5.25
2022-10-01T14:44:57.792Z,3.25
2022-10-01T14:47:26.315Z,3.25
2022-10-01T14:49:54.868Z,3.83
2022-10-01T14:52:25.052Z,6.05
2022-10-01T14:54:59.453Z,5.60
2022-10-01T14:57:33.606Z,4.38
2022-10-01T15:00:04.552Z,5.90
2022-10-01T15:02:32.666Z,4.72
2022-10-01T15:05:00.185Z,5.28
2022-10-01T15:07:34.890Z,5.25
2022-10-01T15:10:06.965Z,6.65
2022-10-01T15:12:43.787Z,4.78
2022-10-01T15:15:22.481Z,4.78
2022-10-01T15:20:18.522Z,4.70
2022-10-01T15:22:49.323Z,5.15
2022-10-01T15:25:21.798Z,4.45
2022-10-01T15:27:51.702Z,5.75
2022-10-01T15:30:19.154Z,4.47
2022-10-01T15:32:48.481Z,4.53
2022-10-01T15:35:22.014Z,4.32
2022-10-01T15:37:50.761Z,3.78
2022-10-01T15:40:27.921Z,3.72
2022-10-01T15:43:24.237Z,3.33
2022-10-01T15:46:17.476Z,2.58
2022-10-01T15:48:45.720Z,4.13
2022-10-01T15:51:19.918Z,1.98
2022-10-01T15:53:47.429Z,2.90
2022-10-01T15:56:20.785Z,3.85
2022-10-01T15:58:54.723Z,4.88
2022-10-01T16:01:25.330Z,5.63
2022-10-01T16:03:56.100Z,6.50
2022-10-01T16:06:27.469Z,5.18
2022-10-01T16:09:01.824Z,5.43
2022-10-01T16:11:30.511Z,4.75
2022-10-01T16:14:28.377Z,9.25
2022-10-01T16:17:26.219Z,8.55
2022-10-01T16:22:25.280Z,13.10
2022-10-01T16:24:54.090Z,11.88
2022-10-01T16:27:23.686Z,6.32
2022-10-01T16:29:55.347Z,8.07
2022-10-01T16:32:23.194Z,28.85
2022-10-01T16:34:50.747Z,14.15
2022-10-01T16:37:18.671Z,6.75
2022-10-01T16:39:46.501Z,6.10
2022-10-01T16:42:24.256Z,9.55
2022-10-01T16:44:53.672Z,25.75
2022-10-01T16:47:20.945Z,36.63
2022-10-01T16:49:50.316Z,21.45
2022-10-01T16:52:18.270Z,82.55
2022-10-01T16:54:45.958Z,66.60
2022-10-01T16:57:13.535Z,50.85
2022-10-01T16:59:41.373Z,29.02
2022-10-01T17:02:12.742Z,68.32
2022-10-01T17:04:40.576Z,42.38
2022-10-01T17:07:08.275Z,23.95
2022-10-01T17:09:35.688Z,8.50
2022-10-01T17:12:03.105Z,50.78
2022-10-01T17:14:30.951Z,10.00
2022-10-01T17:16:58.416Z,34.20
2022-10-01T17:19:27.326Z,39.95
2022-10-01T17:21:55.193Z,131.82
2022-10-01T17:24:22.394Z,52.78
2022-10-01T17:26:49.737Z,17.73
2022-10-01T17:29:17.689Z,18.58
2022-10-01T17:31:45.094Z,34.50
2022-10-01T17:34:12.677Z,12.35
2022-10-01T17:36:41.895Z,50.85
2022-10-01T17:39:09.392Z,14.88
2022-10-01T17:41:36.726Z,14.40
2022-10-01T17:44:04.451Z,38.10
2022-10-01T17:46:31.970Z,48.55
2022-10-01T17:48:59.424Z,20.85
2022-10-01T17:51:27.224Z,24.17
2022-10-01T17:53:56.085Z,16.08
2022-10-01T17:56:23.426Z,14.15
2022-10-01T17:58:53.254Z,7.50
2022-10-01T18:01:22.524Z,17.13
2022-10-01T18:03:53.543Z,6.90
2022-10-01T18:06:21.373Z,17.42
2022-10-01T18:08:55.457Z,7.53
2022-10-01T18:11:26.756Z,6.68
2022-10-01T18:13:54.126Z,4.78
2022-10-01T18:16:22.193Z,24.67
2022-10-01T18:21:42.319Z,5.40
2022-10-01T18:24:09.910Z,8.32
2022-10-01T18:26:39.059Z,8.60
2022-10-01T18:29:06.748Z,16.40
2022-10-01T18:31:37.455Z,5.82
2022-10-01T18:34:15.440Z,5.47
2022-10-01T18:36:52.135Z,8.70
2022-10-01T18:39:28.116Z,29.25
2022-10-01T18:41:58.526Z,8.15
2022-10-01T18:44:26.215Z,4.40
2022-10-01T18:47:12.865Z,6.07
2022-10-01T18:50:07.443Z,18.88
2022-10-01T18:52:51.125Z,23.55
2022-10-01T18:55:58.319Z,13.02
2022-10-01T18:58:59.437Z,16.50
2022-10-01T19:01:36.269Z,6.43
2022-10-01T19:04:21.848Z,7.38
2022-10-01T19:07:02.072Z,8.07
2022-10-01T19:09:41.440Z,7.60
2022-10-01T19:12:29.380Z,8.93
2022-10-01T19:15:07.305Z,11.90
2022-10-01T19:17:47.895Z,8.02
2022-10-01T19:20:24.352Z,5.97
2022-10-01T19:23:08.849Z,5.03
2022-10-01T19:25:45.795Z,6.43
2022-10-01T19:28:31.803Z,7.78
2022-10-01T19:31:11.512Z,5.65
2022-10-01T19:33:44.999Z,5.97
2022-10-01T19:36:20.679Z,6.18
2022-10-01T19:38:50.282Z,4.43
2022-10-01T19:41:28.316Z,5.57
2022-10-01T19:44:02.204Z,5.00
2022-10-01T19:46:35.311Z,5.55
2022-10-01T19:49:12.121Z,5.85
2022-10-01T19:51:44.538Z,6.07
2022-10-01T19:54:16.172Z,4.72
2022-10-01T19:56:45.707Z,4.60
2022-10-01T19:59:15.869Z,5.68
2022-10-01T20:01:52.155Z,4.20
2022-10-01T20:04:30.770Z,5.28
2022-10-01T20:07:04.984Z,5.90
2022-10-01T20:09:44.577Z,5.97
2022-10-01T20:12:26.996Z,6.50
2022-10-01T20:15:03.492Z,4.70
2022-10-01T20:17:40.263Z,4.55
2022-10-01T20:20:16.251Z,4.32
2022-10-01T20:22:56.306Z,5.82
2022-10-01T20:25:31.159Z,5.47
2022-10-01T20:28:08.310Z,3.95
2022-10-01T20:30:44.410Z,6.80
2022-10-01T20:33:21.272Z,4.28
2022-10-01T20:35:59.628Z,4.93
2022-10-01T20:38:32.836Z,8.98
2022-10-01T20:41:05.789Z,6.72
2022-10-01T20:43:37.065Z,6.07
2022-10-01T20:46:11.601Z,5.90
2022-10-01T20:48:43.922Z,5.72
2022-10-01T20:51:16.201Z,6.05
2022-10-01T20:53:50.706Z,5.35
2022-10-01T20:56:23.257Z,5.82
2022-10-01T20:58:56.090Z,6.40
2022-10-01T21:01:27.246Z,5.35
2022-10-01T21:04:01.338Z,5.90
2022-10-01T21:06:34.885Z,4.35
2022-10-01T21:09:09.961Z,5.20
2022-10-01T21:11:43.361Z,4.80
2022-10-01T21:14:16.556Z,4.97
2022-10-01T21:17:04.906Z,6.43
2022-10-01T21:19:46.060Z,4.20
2022-10-01T21:22:26.624Z,8.25
2022-10-01T21:25:02.143Z,5.10
2022-10-01T21:27:48.010Z,4.97
2022-10-01T21:30:17.241Z,4.47
2022-10-01T21:33:10.595Z,4.40
2022-10-01T21:35:48.739Z,4.40
2022-10-01T21:38:30.567Z,4.60
2022-10-01T21:41:28.770Z,4.88
2022-10-01T21:44:18.793Z,4.18
2022-10-01T21:46:54.364Z,4.60
2022-10-01T21:49:31.859Z,6.28
2022-10-01T21:52:10.474Z,4.25
2022-10-01T21:55:05.899Z,5.00
2022-10-01T21:57:47.185Z,4.28
2022-10-01T22:00:18.122Z,3.90
2022-10-01T22:02:57.214Z,4.60
2022-10-01T22:05:35.060Z,5.25
2022-10-01T22:08:17.840Z,3.92
2022-10-01T22:10:48.578Z,5.05
2022-10-01T22:13:19.813Z,3.80
2022-10-01T22:15:51.352Z,3.78
2022-10-01T22:18:28.236Z,4.75
2022-10-01T22:20:59.298Z,4.55
2022-10-01T22:23:32.117Z,5.20
2022-10-01T22:26:03.570Z,4.22
2022-10-01T22:28:36.442Z,5.45
2022-10-01T22:31:09.104Z,3.83
2022-10-01T22:33:41.948Z,3.65
2022-10-01T22:36:15.815Z,3.42
2022-10-01T22:38:49.550Z,3.00
2022-10-01T22:41:27.373Z,5.90
2022-10-01T22:43:55.001Z,3.15
2022-10-01T22:46:50.234Z,3.17
2022-10-01T22:49:29.808Z,4.32
2022-10-01T22:52:09.743Z,3.65
2022-10-01T22:54:53.481Z,4.63
2022-10-01T22:57:35.423Z,2.58
2022-10-01T23:00:05.834Z,3.33
2022-10-01T23:02:38.953Z,4.25
2022-10-01T23:05:15.767Z,3.70
2022-10-01T23:07:56.570Z,3.72
2022-10-01T23:10:32.521Z,3.85
2022-10-01T23:13:12.291Z,4.95
2022-10-01T23:15:45.657Z,2.92
2022-10-01T23:18:24.868Z,2.92
2022-10-01T23:21:16.618Z,3.05
2022-10-01T23:23:55.617Z,3.97
2022-10-01T23:26:35.035Z,4.03
2022-10-01T23:29:17.889Z,2.25
2022-10-01T23:31:54.125Z,3.47
2022-10-01T23:34:29.646Z,5.07
2022-10-01T23:37:12.625Z,1.85
2022-10-01T23:39:48.033Z,3.63
2022-10-01T23:42:27.601Z,3.47
2022-10-01T23:45:04.977Z,5.28
2022-10-01T23:47:40.027Z,3.50
2022-10-01T23:50:17.296Z,3.53
2022-10-01T23:52:51.507Z,3.22
2022-10-01T23:55:26.161Z,2.13
2022-10-01T23:58:03.150Z,3.17
